sensor_id;sensor_type;location;lat;lon;timestamp;P1;durP1;ratioP1;P2;durP2;ratioP2
17145;SDS011;8688;54.444;18.444;2022-11-21T00:01:32;36.80;;;17.73;;
17145;SDS011;8688;54.444;18.444;2022-11-21T00:03:59;37.17;;;18.43;;
17145;SDS011;8688;54.444;18.444;2022-11-21T00:06:27;35.77;;;16.77;;
17145;SDS011;8688;54.444;18.444;2022-11-21T00:08:55;39.73;;;17.23;;
17145;SDS011;8688;54.444;18.444;2022-11-21T00:11:23;34.67;;;15.43;;
17145;SDS011;8688;54.444;18.444;2022-11-21T00:18:54;32.63;;;15.30;;
17145;SDS011;8688;54.444;18.444;2022-11-21T00:21:21;28.37;;;14.47;;
17145;SDS011;8688;54.444;18.444;2022-11-21T00:23:51;32.20;;;13.60;;
17145;SDS011;8688;54.444;18.444;2022-11-21T00:26:18;29.67;;;14.00;;
17145;SDS011;8688;54.444;18.444;2022-11-21T00:28:47;28.13;;;12.60;;
17145;SDS011;8688;54.444;18.444;2022-11-21T00:31:18;24.70;;;11.80;;
17145;SDS011;8688;54.444;18.444;2022-11-21T00:33:46;24.30;;;11.20;;
17145;SDS011;8688;54.444;18.444;2022-11-21T00:36:14;21.57;;;10.23;;
17145;SDS011;8688;54.444;18.444;2022-11-21T00:38:41;21.13;;;10.50;;
17145;SDS011;8688;54.444;18.444;2022-11-21T00:41:09;23.03;;;10.77;;
17145;SDS011;8688;54.444;18.444;2022-11-21T00:43:36;25.10;;;11.17;;
17145;SDS011;8688;54.444;18.444;2022-11-21T00:46:05;25.43;;;12.23;;
17145;SDS011;8688;54.444;18.444;2022-11-21T00:48:33;24.13;;;11.50;;
17145;SDS011;8688;54.444;18.444;2022-11-21T00:51:00;26.40;;;11.20;;
17145;SDS011;8688;54.444;18.444;2022-11-21T00:53:28;23.37;;;11.97;;
17145;SDS011;8688;54.444;18.444;2022-11-21T00:55:55;17.97;;;7.73;;
17145;SDS011;8688;54.444;18.444;2022-11-21T00:58:23;20.63;;;9.63;;
17145;SDS011;8688;54.444;18.444;2022-11-21T01:00:50;21.30;;;9.80;;
17145;SDS011;8688;54.444;18.444;2022-11-21T01:03:20;26.33;;;11.53;;
17145;SDS011;8688;54.444;18.444;2022-11-21T01:05:47;22.50;;;11.13;;
17145;SDS011;8688;54.444;18.444;2022-11-21T01:08:14;24.33;;;11.23;;
17145;SDS011;8688;54.444;18.444;2022-11-21T01:10:42;22.77;;;11.00;;
17145;SDS011;8688;54.444;18.444;2022-11-21T01:13:09;25.30;;;11.07;;
17145;SDS011;8688;54.444;18.444;2022-11-21T01:15:37;21.80;;;10.97;;
17145;SDS011;8688;54.444;18.444;2022-11-21T01:18:04;21.03;;;10.10;;
17145;SDS011;8688;54.444;18.444;2022-11-21T01:20:33;19.30;;;9.57;;
17145;SDS011;8688;54.444;18.444;2022-11-21T01:23:05;19.90;;;9.50;;
17145;SDS011;8688;54.444;18.444;2022-11-21T01:25:33;22.10;;;10.70;;
17145;SDS011;8688;54.444;18.444;2022-11-21T01:28:00;19.53;;;9.73;;
17145;SDS011;8688;54.444;18.444;2022-11-21T01:30:27;18.50;;;9.67;;
17145;SDS011;8688;54.444;18.444;2022-11-21T01:32:55;22.23;;;10.17;;
17145;SDS011;8688;54.444;18.444;2022-11-21T01:35:22;21.53;;;10.30;;
17145;SDS011;8688;54.444;18.444;2022-11-21T01:37:52;17.17;;;9.50;;
17145;SDS011;8688;54.444;18.444;2022-11-21T01:40:19;23.53;;;11.03;;
17145;SDS011;8688;54.444;18.444;2022-11-21T01:42:53;22.43;;;10.00;;
17145;SDS011;8688;54.444;18.444;2022-11-21T01:48:29;23.67;;;10.57;;
17145;SDS011;8688;54.444;18.444;2022-11-21T01:51:02;24.07;;;10.50;;
17145;SDS011;8688;54.444;18.444;2022-11-21T01:53:35;24.47;;;10.97;;
17145;SDS011;8688;54.444;18.444;2022-11-21T01:56:05;22.37;;;10.83;;
17145;SDS011;8688;54.444;18.444;2022-11-21T01:58:33;22.43;;;10.53;;
17145;SDS011;8688;54.444;18.444;2022-11-21T02:01:02;21.83;;;10.43;;
17145;SDS011;8688;54.444;18.444;2022-11-21T02:03:30;24.70;;;10.70;;
17145;SDS011;8688;54.444;18.444;2022-11-21T02:06:00;23.80;;;10.27;;
17145;SDS011;8688;54.444;18.444;2022-11-21T02:08:28;21.50;;;10.23;;
17145;SDS011;8688;54.444;18.444;2022-11-21T02:11:00;21.40;;;9.67;;
17145;SDS011;8688;54.444;18.444;2022-11-21T02:13:34;24.80;;;10.93;;
17145;SDS011;8688;54.444;18.444;2022-11-21T02:16:02;21.03;;;10.13;;
17145;SDS011;8688;54.444;18.444;2022-11-21T02:18:29;20.70;;;9.93;;
17145;SDS011;8688;54.444;18.444;2022-11-21T02:20:59;19.23;;;9.33;;
17145;SDS011;8688;54.444;18.444;2022-11-21T02:23:33;19.63;;;9.67;;
17145;SDS011;8688;54.444;18.444;2022-11-21T02:26:07;21.87;;;9.10;;
17145;SDS011;8688;54.444;18.444;2022-11-21T02:28:35;18.70;;;9.13;;
17145;SDS011;8688;54.444;18.444;2022-11-21T02:31:03;23.00;;;10.40;;
17145;SDS011;8688;54.444;18.444;2022-11-21T02:33:30;21.77;;;9.50;;
17145;SDS011;8688;54.444;18.444;2022-11-21T02:35:58;19.93;;;9.30;;
17145;SDS011;8688;54.444;18.444;2022-11-21T02:38:27;22.00;;;9.87;;
17145;SDS011;8688;54.444;18.444;2022-11-21T02:41:00;20.93;;;9.90;;
17145;SDS011;8688;54.444;18.444;2022-11-21T02:43:35;21.53;;;10.13;;
17145;SDS011;8688;54.444;18.444;2022-11-21T02:46:06;23.03;;;10.73;;
17145;SDS011;8688;54.444;18.444;2022-11-21T02:48:34;20.20;;;9.70;;
17145;SDS011;8688;54.444;18.444;2022-11-21T02:51:02;24.10;;;10.73;;
17145;SDS011;8688;54.444;18.444;2022-11-21T02:53:30;22.63;;;10.53;;
17145;SDS011;8688;54.444;18.444;2022-11-21T02:55:57;24.00;;;10.87;;
17145;SDS011;8688;54.444;18.444;2022-11-21T02:58:25;20.93;;;9.70;;
17145;SDS011;8688;54.444;18.444;2022-11-21T03:00:54;21.80;;;10.70;;
17145;SDS011;8688;54.444;18.444;2022-11-21T03:03:21;23.83;;;10.80;;
17145;SDS011;8688;54.444;18.444;2022-11-21T03:05:49;25.93;;;11.03;;
17145;SDS011;8688;54.444;18.444;2022-11-21T03:08:16;26.80;;;11.50;;
17145;SDS011;8688;54.444;18.444;2022-11-21T03:10:44;25.40;;;11.33;;
17145;SDS011;8688;54.444;18.444;2022-11-21T03:13:11;27.67;;;11.63;;
17145;SDS011;8688;54.444;18.444;2022-11-21T03:15:39;25.23;;;11.23;;
17145;SDS011;8688;54.444;18.444;2022-11-21T03:18:08;28.57;;;11.80;;
17145;SDS011;8688;54.444;18.444;2022-11-21T03:20:35;27.23;;;11.10;;
17145;SDS011;8688;54.444;18.444;2022-11-21T03:23:02;28.33;;;11.90;;
17145;SDS011;8688;54.444;18.444;2022-11-21T03:25:30;27.40;;;12.13;;
17145;SDS011;8688;54.444;18.444;2022-11-21T03:27:57;31.00;;;12.10;;
17145;SDS011;8688;54.444;18.444;2022-11-21T03:30:25;28.77;;;12.23;;
17145;SDS011;8688;54.444;18.444;2022-11-21T03:32:53;29.87;;;13.13;;
17145;SDS011;8688;54.444;18.444;2022-11-21T03:35:26;29.07;;;13.43;;
17145;SDS011;8688;54.444;18.444;2022-11-21T03:37:53;32.10;;;12.63;;
17145;SDS011;8688;54.444;18.444;2022-11-21T03:40:20;28.80;;;13.83;;
17145;SDS011;8688;54.444;18.444;2022-11-21T03:42:48;33.77;;;13.93;;
17145;SDS011;8688;54.444;18.444;2022-11-21T03:45:15;32.60;;;12.80;;
17145;SDS011;8688;54.444;18.444;2022-11-21T03:47:42;33.90;;;13.83;;
17145;SDS011;8688;54.444;18.444;2022-11-21T03:50:10;33.53;;;13.17;;
17145;SDS011;8688;54.444;18.444;2022-11-21T03:52:40;31.33;;;13.30;;
17145;SDS011;8688;54.444;18.444;2022-11-21T03:55:08;32.40;;;13.47;;
17145;SDS011;8688;54.444;18.444;2022-11-21T03:57:35;31.00;;;13.53;;
17145;SDS011;8688;54.444;18.444;2022-11-21T04:00:04;30.43;;;12.60;;
17145;SDS011;8688;54.444;18.444;2022-11-21T04:02:32;32.57;;;13.37;;
17145;SDS011;8688;54.444;18.444;2022-11-21T04:05:00;35.60;;;13.47;;
17145;SDS011;8688;54.444;18.444;2022-11-21T04:07:27;33.03;;;13.70;;
17145;SDS011;8688;54.444;18.444;2022-11-21T04:09:56;35.97;;;14.53;;
17145;SDS011;8688;54.444;18.444;2022-11-21T04:12:23;34.23;;;14.63;;
17145;SDS011;8688;54.444;18.444;2022-11-21T04:14:50;31.90;;;13.63;;
17145;SDS011;8688;54.444;18.444;2022-11-21T04:17:18;35.00;;;12.93;;
17145;SDS011;8688;54.444;18.444;2022-11-21T04:19:45;35.80;;;14.40;;
17145;SDS011;8688;54.444;18.444;2022-11-21T04:22:13;32.77;;;13.37;;
17145;SDS011;8688;54.444;18.444;2022-11-21T04:24:40;33.20;;;13.80;;
17145;SDS011;8688;54.444;18.444;2022-11-21T04:27:09;31.30;;;13.37;;
17145;SDS011;8688;54.444;18.444;2022-11-21T04:29:37;35.73;;;13.90;;
17145;SDS011;8688;54.444;18.444;2022-11-21T04:32:04;31.67;;;13.30;;
17145;SDS011;8688;54.444;18.444;2022-11-21T04:34:31;30.50;;;11.97;;
17145;SDS011;8688;54.444;18.444;2022-11-21T04:36:59;31.27;;;12.87;;
17145;SDS011;8688;54.444;18.444;2022-11-21T04:39:26;33.03;;;14.37;;
17145;SDS011;8688;54.444;18.444;2022-11-21T04:41:53;33.37;;;14.17;;
17145;SDS011;8688;54.444;18.444;2022-11-21T04:44:22;32.27;;;14.23;;
17145;SDS011;8688;54.444;18.444;2022-11-21T04:46:50;33.03;;;13.97;;
17145;SDS011;8688;54.444;18.444;2022-11-21T04:49:17;28.00;;;12.50;;
17145;SDS011;8688;54.444;18.444;2022-11-21T04:51:45;30.33;;;12.97;;
17145;SDS011;8688;54.444;18.444;2022-11-21T04:54:12;31.13;;;13.13;;
17145;SDS011;8688;54.444;18.444;2022-11-21T04:56:39;30.33;;;13.23;;
17145;SDS011;8688;54.444;18.444;2022-11-21T04:59:07;34.23;;;13.43;;
17145;SDS011;8688;54.444;18.444;2022-11-21T05:01:37;32.07;;;14.07;;
17145;SDS011;8688;54.444;18.444;2022-11-21T05:04:05;30.43;;;13.30;;
17145;SDS011;8688;54.444;18.444;2022-11-21T05:06:32;30.30;;;13.57;;
17145;SDS011;8688;54.444;18.444;2022-11-21T05:09:00;35.13;;;15.57;;
17145;SDS011;8688;54.444;18.444;2022-11-21T05:11:27;34.60;;;13.93;;
17145;SDS011;8688;54.444;18.444;2022-11-21T05:14:12;31.00;;;13.33;;
17145;SDS011;8688;54.444;18.444;2022-11-21T05:16:41;31.37;;;14.27;;
17145;SDS011;8688;54.444;18.444;2022-11-21T05:19:08;35.30;;;15.10;;
17145;SDS011;8688;54.444;18.444;2022-11-21T05:21:36;31.30;;;13.57;;
17145;SDS011;8688;54.444;18.444;2022-11-21T05:24:03;32.00;;;14.20;;
17145;SDS011;8688;54.444;18.444;2022-11-21T05:26:31;30.73;;;13.30;;
17145;SDS011;8688;54.444;18.444;2022-11-21T05:28:59;26.83;;;12.97;;
17145;SDS011;8688;54.444;18.444;2022-11-21T05:31:26;28.67;;;12.07;;
17145;SDS011;8688;54.444;18.444;2022-11-21T05:33:55;27.33;;;12.13;;
17145;SDS011;8688;54.444;18.444;2022-11-21T05:36:23;28.43;;;12.60;;
17145;SDS011;8688;54.444;18.444;2022-11-21T05:38:50;28.57;;;12.93;;
17145;SDS011;8688;54.444;18.444;2022-11-21T05:41:17;28.50;;;11.73;;
17145;SDS011;8688;54.444;18.444;2022-11-21T05:43:45;29.10;;;12.87;;
17145;SDS011;8688;54.444;18.444;2022-11-21T05:46:11;31.33;;;13.40;;
17145;SDS011;8688;54.444;18.444;2022-11-21T05:48:39;38.53;;;15.23;;
17145;SDS011;8688;54.444;18.444;2022-11-21T05:51:08;30.50;;;13.70;;
17145;SDS011;8688;54.444;18.444;2022-11-21T05:53:36;38.07;;;14.57;;
17145;SDS011;8688;54.444;18.444;2022-11-21T05:56:04;31.77;;;13.70;;
17145;SDS011;8688;54.444;18.444;2022-11-21T05:58:33;36.73;;;13.43;;
17145;SDS011;8688;54.444;18.444;2022-11-21T06:01:01;28.00;;;12.10;;
17145;SDS011;8688;54.444;18.444;2022-11-21T06:03:30;27.17;;;11.47;;
17145;SDS011;8688;54.444;18.444;2022-11-21T06:06:00;29.40;;;11.57;;
17145;SDS011;8688;54.444;18.444;2022-11-21T06:08:30;23.50;;;10.10;;
17145;SDS011;8688;54.444;18.444;2022-11-21T06:10:59;33.03;;;12.50;;
17145;SDS011;8688;54.444;18.444;2022-11-21T06:13:27;25.93;;;11.57;;
17145;SDS011;8688;54.444;18.444;2022-11-21T06:15:57;31.63;;;12.70;;
17145;SDS011;8688;54.444;18.444;2022-11-21T06:18:26;29.97;;;13.33;;
17145;SDS011;8688;54.444;18.444;2022-11-21T06:20:59;30.60;;;13.10;;
17145;SDS011;8688;54.444;18.444;2022-11-21T06:31:07;32.03;;;13.73;;
17145;SDS011;8688;54.444;18.444;2022-11-21T06:33:36;29.30;;;13.13;;
17145;SDS011;8688;54.444;18.444;2022-11-21T06:36:05;29.70;;;12.63;;
17145;SDS011;8688;54.444;18.444;2022-11-21T06:38:35;30.57;;;12.60;;
17145;SDS011;8688;54.444;18.444;2022-11-21T06:41:03;28.10;;;12.70;;
17145;SDS011;8688;54.444;18.444;2022-11-21T06:43:31;28.00;;;12.90;;
17145;SDS011;8688;54.444;18.444;2022-11-21T06:45:58;24.93;;;12.47;;
17145;SDS011;8688;54.444;18.444;2022-11-21T06:48:29;27.07;;;12.80;;
17145;SDS011;8688;54.444;18.444;2022-11-21T06:50:56;27.77;;;12.10;;
17145;SDS011;8688;54.444;18.444;2022-11-21T07:03:57;23.83;;;11.03;;
17145;SDS011;8688;54.444;18.444;2022-11-21T07:06:25;23.73;;;11.30;;
17145;SDS011;8688;54.444;18.444;2022-11-21T07:08:52;25.10;;;12.07;;
17145;SDS011;8688;54.444;18.444;2022-11-21T07:11:20;24.67;;;11.07;;
17145;SDS011;8688;54.444;18.444;2022-11-21T07:13:47;26.00;;;10.83;;
17145;SDS011;8688;54.444;18.444;2022-11-21T07:16:14;24.93;;;10.87;;
17145;SDS011;8688;54.444;18.444;2022-11-21T07:18:41;27.67;;;11.53;;
17145;SDS011;8688;54.444;18.444;2022-11-21T07:21:11;24.77;;;10.17;;
17145;SDS011;8688;54.444;18.444;2022-11-21T07:23:38;22.83;;;10.60;;
17145;SDS011;8688;54.444;18.444;2022-11-21T07:26:06;23.90;;;11.40;;
17145;SDS011;8688;54.444;18.444;2022-11-21T07:28:35;23.83;;;11.50;;
17145;SDS011;8688;54.444;18.444;2022-11-21T07:31:02;23.50;;;10.60;;
17145;SDS011;8688;54.444;18.444;2022-11-21T07:33:30;19.57;;;9.03;;
17145;SDS011;8688;54.444;18.444;2022-11-21T07:35:57;25.97;;;11.90;;
17145;SDS011;8688;54.444;18.444;2022-11-21T07:38:26;31.00;;;13.00;;
17145;SDS011;8688;54.444;18.444;2022-11-21T07:40:55;24.37;;;10.87;;
17145;SDS011;8688;54.444;18.444;2022-11-21T07:43:22;26.43;;;11.60;;
17145;SDS011;8688;54.444;18.444;2022-11-21T07:45:50;29.07;;;11.80;;
17145;SDS011;8688;54.444;18.444;2022-11-21T07:48:17;30.50;;;12.33;;
17145;SDS011;8688;54.444;18.444;2022-11-21T07:50:45;29.37;;;13.07;;
17145;SDS011;8688;54.444;18.444;2022-11-21T07:53:12;28.17;;;12.67;;
17145;SDS011;8688;54.444;18.444;2022-11-21T07:55:41;30.10;;;13.20;;
17145;SDS011;8688;54.444;18.444;2022-11-21T07:58:09;30.03;;;13.67;;
17145;SDS011;8688;54.444;18.444;2022-11-21T08:00:38;34.00;;;14.23;;
17145;SDS011;8688;54.444;18.444;2022-11-21T08:03:07;27.60;;;12.67;;
17145;SDS011;8688;54.444;18.444;2022-11-21T08:05:36;31.10;;;13.60;;
17145;SDS011;8688;54.444;18.444;2022-11-21T08:08:04;30.50;;;13.87;;
17145;SDS011;8688;54.444;18.444;2022-11-21T08:10:31;31.17;;;14.00;;
17145;SDS011;8688;54.444;18.444;2022-11-21T08:13:00;27.67;;;12.23;;
17145;SDS011;8688;54.444;18.444;2022-11-21T08:15:27;32.60;;;14.50;;
17145;SDS011;8688;54.444;18.444;2022-11-21T08:17:55;35.67;;;14.53;;
17145;SDS011;8688;54.444;18.444;2022-11-21T08:20:22;29.97;;;14.27;;
17145;SDS011;8688;54.444;18.444;2022-11-21T08:22:50;28.50;;;13.77;;
17145;SDS011;8688;54.444;18.444;2022-11-21T08:25:17;30.43;;;14.87;;
17145;SDS011;8688;54.444;18.444;2022-11-21T08:27:45;31.93;;;14.50;;
17145;SDS011;8688;54.444;18.444;2022-11-21T08:30:14;33.60;;;14.30;;
17145;SDS011;8688;54.444;18.444;2022-11-21T08:32:41;30.67;;;14.37;;
17145;SDS011;8688;54.444;18.444;2022-11-21T08:35:08;34.63;;;15.10;;
17145;SDS011;8688;54.444;18.444;2022-11-21T08:37:36;34.83;;;14.13;;
17145;SDS011;8688;54.444;18.444;2022-11-21T08:40:04;31.43;;;13.93;;
17145;SDS011;8688;54.444;18.444;2022-11-21T08:42:32;33.83;;;14.30;;
17145;SDS011;8688;54.444;18.444;2022-11-21T08:45:00;30.23;;;14.33;;
17145;SDS011;8688;54.444;18.444;2022-11-21T08:47:28;32.13;;;14.50;;
17145;SDS011;8688;54.444;18.444;2022-11-21T08:49:58;34.13;;;14.83;;
17145;SDS011;8688;54.444;18.444;2022-11-21T08:52:25;32.07;;;14.57;;
17145;SDS011;8688;54.444;18.444;2022-11-21T08:54:53;32.53;;;14.67;;
17145;SDS011;8688;54.444;18.444;2022-11-21T08:57:20;30.77;;;13.90;;
17145;SDS011;8688;54.444;18.444;2022-11-21T08:59:47;34.40;;;14.53;;
17145;SDS011;8688;54.444;18.444;2022-11-21T09:02:15;31.73;;;13.27;;
17145;SDS011;8688;54.444;18.444;2022-11-21T09:04:43;32.80;;;14.63;;
17145;SDS011;8688;54.444;18.444;2022-11-21T09:07:11;33.07;;;13.77;;
17145;SDS011;8688;54.444;18.444;2022-11-21T09:09:38;33.00;;;13.77;;
17145;SDS011;8688;54.444;18.444;2022-11-21T09:12:05;33.17;;;13.00;;
17145;SDS011;8688;54.444;18.444;2022-11-21T09:14:33;27.30;;;13.03;;
17145;SDS011;8688;54.444;18.444;2022-11-21T09:17:18;30.13;;;12.33;;
17145;SDS011;8688;54.444;18.444;2022-11-21T09:20:04;29.97;;;12.67;;
17145;SDS011;8688;54.444;18.444;2022-11-21T09:22:32;27.00;;;12.43;;
17145;SDS011;8688;54.444;18.444;2022-11-21T09:24:59;28.60;;;12.40;;
17145;SDS011;8688;54.444;18.444;2022-11-21T09:27:27;29.03;;;13.07;;
17145;SDS011;8688;54.444;18.444;2022-11-21T09:29:55;26.43;;;12.00;;
17145;SDS011;8688;54.444;18.444;2022-11-21T09:32:22;28.93;;;13.23;;
17145;SDS011;8688;54.444;18.444;2022-11-21T09:34:50;25.10;;;12.50;;
17145;SDS011;8688;54.444;18.444;2022-11-21T09:37:19;28.10;;;12.10;;
17145;SDS011;8688;54.444;18.444;2022-11-21T09:39:46;27.27;;;12.70;;
17145;SDS011;8688;54.444;18.444;2022-11-21T09:42:25;24.93;;;11.80;;
17145;SDS011;8688;54.444;18.444;2022-11-21T09:45:08;26.23;;;12.23;;
17145;SDS011;8688;54.444;18.444;2022-11-21T09:47:40;26.07;;;12.27;;
17145;SDS011;8688;54.444;18.444;2022-11-21T09:50:17;26.43;;;12.10;;
17145;SDS011;8688;54.444;18.444;2022-11-21T09:52:53;32.53;;;12.80;;
17145;SDS011;8688;54.444;18.444;2022-11-21T09:55:30;29.30;;;12.27;;
17145;SDS011;8688;54.444;18.444;2022-11-21T09:58:10;28.33;;;13.10;;
17145;SDS011;8688;54.444;18.444;2022-11-21T10:00:45;30.47;;;14.27;;
17145;SDS011;8688;54.444;18.444;2022-11-21T10:03:16;32.20;;;14.37;;
17145;SDS011;8688;54.444;18.444;2022-11-21T10:05:47;32.37;;;14.00;;
17145;SDS011;8688;54.444;18.444;2022-11-21T10:08:22;29.17;;;14.33;;
17145;SDS011;8688;54.444;18.444;2022-11-21T10:10:57;30.33;;;13.20;;
17145;SDS011;8688;54.444;18.444;2022-11-21T10:13:35;29.83;;;14.53;;
17145;SDS011;8688;54.444;18.444;2022-11-21T10:16:13;31.17;;;14.73;;
17145;SDS011;8688;54.444;18.444;2022-11-21T10:19:03;34.40;;;14.33;;
17145;SDS011;8688;54.444;18.444;2022-11-21T10:21:58;36.40;;;16.43;;
17145;SDS011;8688;54.444;18.444;2022-11-21T10:24:42;37.83;;;18.60;;
17145;SDS011;8688;54.444;18.444;2022-11-21T10:27:14;42.57;;;19.77;;
17145;SDS011;8688;54.444;18.444;2022-11-21T10:29:47;48.33;;;21.20;;
17145;SDS011;8688;54.444;18.444;2022-11-21T10:32:20;54.50;;;22.07;;
17145;SDS011;8688;54.444;18.444;2022-11-21T10:34:50;47.03;;;20.93;;
17145;SDS011;8688;54.444;18.444;2022-11-21T10:37:25;49.90;;;22.83;;
17145;SDS011;8688;54.444;18.444;2022-11-21T10:39:59;48.47;;;22.20;;
17145;SDS011;8688;54.444;18.444;2022-11-21T10:42:36;50.57;;;21.97;;
17145;SDS011;8688;54.444;18.444;2022-11-21T10:45:09;54.23;;;22.23;;
17145;SDS011;8688;54.444;18.444;2022-11-21T10:47:44;48.67;;;21.23;;
17145;SDS011;8688;54.444;18.444;2022-11-21T10:50:23;49.73;;;21.83;;
17145;SDS011;8688;54.444;18.444;2022-11-21T10:53:04;40.27;;;20.10;;
17145;SDS011;8688;54.444;18.444;2022-11-21T10:55:58;45.33;;;19.80;;
17145;SDS011;8688;54.444;18.444;2022-11-21T10:58:33;41.63;;;18.10;;
17145;SDS011;8688;54.444;18.444;2022-11-21T11:01:05;38.20;;;17.83;;
17145;SDS011;8688;54.444;18.444;2022-11-21T11:03:43;41.80;;;18.47;;
17145;SDS011;8688;54.444;18.444;2022-11-21T11:06:11;41.50;;;18.27;;
17145;SDS011;8688;54.444;18.444;2022-11-21T11:08:49;43.90;;;19.83;;
17145;SDS011;8688;54.444;18.444;2022-11-21T11:11:20;41.30;;;17.63;;
17145;SDS011;8688;54.444;18.444;2022-11-21T11:13:54;37.73;;;16.30;;
17145;SDS011;8688;54.444;18.444;2022-11-21T11:16:23;38.10;;;17.13;;
17145;SDS011;8688;54.444;18.444;2022-11-21T11:18:56;35.90;;;16.33;;
17145;SDS011;8688;54.444;18.444;2022-11-21T11:21:26;34.73;;;16.80;;
17145;SDS011;8688;54.444;18.444;2022-11-21T11:24:06;40.30;;;18.07;;
17145;SDS011;8688;54.444;18.444;2022-11-21T11:26:51;37.57;;;17.10;;
17145;SDS011;8688;54.444;18.444;2022-11-21T11:29:22;36.73;;;16.53;;
17145;SDS011;8688;54.444;18.444;2022-11-21T11:31:51;38.13;;;16.60;;
17145;SDS011;8688;54.444;18.444;2022-11-21T11:34:21;35.70;;;16.13;;
17145;SDS011;8688;54.444;18.444;2022-11-21T11:36:55;39.40;;;16.83;;
17145;SDS011;8688;54.444;18.444;2022-11-21T11:39:37;37.93;;;18.37;;
17145;SDS011;8688;54.444;18.444;2022-11-21T11:48:54;40.07;;;16.87;;
17145;SDS011;8688;54.444;18.444;2022-11-21T11:51:29;39.10;;;17.00;;
17145;SDS011;8688;54.444;18.444;2022-11-21T11:54:05;38.97;;;17.27;;
17145;SDS011;8688;54.444;18.444;2022-11-21T11:56:38;41.80;;;18.00;;
17145;SDS011;8688;54.444;18.444;2022-11-21T11:59:12;38.80;;;18.17;;
17145;SDS011;8688;54.444;18.444;2022-11-21T12:01:45;44.77;;;18.83;;
17145;SDS011;8688;54.444;18.444;2022-11-21T12:04:17;42.33;;;19.07;;
17145;SDS011;8688;54.444;18.444;2022-11-21T12:06:47;47.57;;;19.57;;
17145;SDS011;8688;54.444;18.444;2022-11-21T12:09:21;44.20;;;18.50;;
17145;SDS011;8688;54.444;18.444;2022-11-21T12:11:54;47.47;;;19.80;;
17145;SDS011;8688;54.444;18.444;2022-11-21T12:17:41;47.70;;;21.27;;
17145;SDS011;8688;54.444;18.444;2022-11-21T12:20:18;47.13;;;21.77;;
17145;SDS011;8688;54.444;18.444;2022-11-21T12:25:16;46.90;;;22.03;;
17145;SDS011;8688;54.444;18.444;2022-11-21T12:27:47;54.60;;;23.90;;
17145;SDS011;8688;54.444;18.444;2022-11-21T12:30:29;49.93;;;23.17;;
17145;SDS011;8688;54.444;18.444;2022-11-21T12:33:18;57.60;;;23.53;;
17145;SDS011;8688;54.444;18.444;2022-11-21T12:38:28;63.90;;;26.77;;
17145;SDS011;8688;54.444;18.444;2022-11-21T12:41:10;61.73;;;26.10;;
17145;SDS011;8688;54.444;18.444;2022-11-21T12:44:07;62.93;;;26.93;;
17145;SDS011;8688;54.444;18.444;2022-11-21T12:46:47;61.23;;;26.67;;
17145;SDS011;8688;54.444;18.444;2022-11-21T12:49:22;65.17;;;28.23;;
17145;SDS011;8688;54.444;18.444;2022-11-21T12:54:54;62.57;;;28.20;;
17145;SDS011;8688;54.444;18.444;2022-11-21T12:57:40;66.23;;;28.77;;
17145;SDS011;8688;54.444;18.444;2022-11-21T13:00:23;67.20;;;28.53;;
17145;SDS011;8688;54.444;18.444;2022-11-21T13:03:12;64.27;;;27.93;;
17145;SDS011;8688;54.444;18.444;2022-11-21T13:05:55;68.83;;;26.83;;
17145;SDS011;8688;54.444;18.444;2022-11-21T13:08:24;63.87;;;27.77;;
17145;SDS011;8688;54.444;18.444;2022-11-21T13:10:56;67.13;;;27.40;;
17145;SDS011;8688;54.444;18.444;2022-11-21T13:13:42;64.00;;;27.20;;
17145;SDS011;8688;54.444;18.444;2022-11-21T13:16:15;70.43;;;30.10;;
17145;SDS011;8688;54.444;18.444;2022-11-21T13:19:03;71.57;;;29.97;;
17145;SDS011;8688;54.444;18.444;2022-11-21T13:21:39;68.73;;;28.07;;
17145;SDS011;8688;54.444;18.444;2022-11-21T13:24:07;68.67;;;28.37;;
17145;SDS011;8688;54.444;18.444;2022-11-21T13:26:50;78.80;;;32.20;;
17145;SDS011;8688;54.444;18.444;2022-11-21T13:29:18;225.60;;;79.93;;
17145;SDS011;8688;54.444;18.444;2022-11-21T13:31:46;126.57;;;51.80;;
17145;SDS011;8688;54.444;18.444;2022-11-21T13:34:35;86.23;;;38.83;;
17145;SDS011;8688;54.444;18.444;2022-11-21T14:10:46;85.43;;;34.43;;
17145;SDS011;8688;54.444;18.444;2022-11-21T14:13:20;106.33;;;41.00;;
17145;SDS011;8688;54.444;18.444;2022-11-21T14:15:57;102.57;;;42.20;;
17145;SDS011;8688;54.444;18.444;2022-11-21T14:18:37;86.97;;;36.47;;
17145;SDS011;8688;54.444;18.444;2022-11-21T14:21:15;94.07;;;39.63;;
17145;SDS011;8688;54.444;18.444;2022-11-21T14:23:46;116.90;;;45.80;;
17145;SDS011;8688;54.444;18.444;2022-11-21T14:26:16;101.73;;;43.73;;
17145;SDS011;8688;54.444;18.444;2022-11-21T14:28:46;85.67;;;34.73;;
17145;SDS011;8688;54.444;18.444;2022-11-21T14:31:13;94.53;;;37.30;;
17145;SDS011;8688;54.444;18.444;2022-11-21T14:33:41;89.50;;;35.47;;
17145;SDS011;8688;54.444;18.444;2022-11-21T14:36:11;101.43;;;38.53;;
17145;SDS011;8688;54.444;18.444;2022-11-21T14:38:41;94.00;;;36.93;;
17145;SDS011;8688;54.444;18.444;2022-11-21T14:44:05;95.90;;;37.77;;
17145;SDS011;8688;54.444;18.444;2022-11-21T14:46:41;105.57;;;39.67;;
17145;SDS011;8688;54.444;18.444;2022-11-21T14:49:16;104.33;;;38.93;;
17145;SDS011;8688;54.444;18.444;2022-11-21T14:54:45;108.47;;;40.57;;
17145;SDS011;8688;54.444;18.444;2022-11-21T14:57:21;104.23;;;39.27;;
17145;SDS011;8688;54.444;18.444;2022-11-21T14:59:52;108.77;;;38.30;;
17145;SDS011;8688;54.444;18.444;2022-11-21T15:02:21;104.53;;;40.00;;
17145;SDS011;8688;54.444;18.444;2022-11-21T15:04:51;102.10;;;37.33;;
17145;SDS011;8688;54.444;18.444;2022-11-21T15:07:22;97.10;;;36.43;;
17145;SDS011;8688;54.444;18.444;2022-11-21T15:09:51;101.40;;;37.60;;
17145;SDS011;8688;54.444;18.444;2022-11-21T15:12:25;112.83;;;40.77;;
17145;SDS011;8688;54.444;18.444;2022-11-21T15:14:57;101.73;;;38.93;;
17145;SDS011;8688;54.444;18.444;2022-11-21T15:17:30;116.63;;;41.23;;
17145;SDS011;8688;54.444;18.444;2022-11-21T15:20:04;124.57;;;47.17;;
17145;SDS011;8688;54.444;18.444;2022-11-21T15:22:43;96.00;;;39.10;;
17145;SDS011;8688;54.444;18.444;2022-11-21T15:25:14;102.27;;;40.33;;
17145;SDS011;8688;54.444;18.444;2022-11-21T15:27:45;113.97;;;38.83;;
17145;SDS011;8688;54.444;18.444;2022-11-21T15:30:20;101.40;;;38.03;;
17145;SDS011;8688;54.444;18.444;2022-11-21T15:33:06;125.93;;;46.03;;
17145;SDS011;8688;54.444;18.444;2022-11-21T15:35:41;124.00;;;44.93;;
17145;SDS011;8688;54.444;18.444;2022-11-21T15:38:17;111.97;;;40.57;;
17145;SDS011;8688;54.444;18.444;2022-11-21T15:40:58;110.23;;;39.43;;
17145;SDS011;8688;54.444;18.444;2022-11-21T15:43:38;113.00;;;42.00;;
17145;SDS011;8688;54.444;18.444;2022-11-21T15:46:12;149.00;;;62.25;;
17145;SDS011;8688;54.444;18.444;2022-11-21T15:48:43;130.03;;;50.97;;
17145;SDS011;8688;54.444;18.444;2022-11-21T15:51:11;121.97;;;46.33;;
17145;SDS011;8688;54.444;18.444;2022-11-21T15:53:39;131.60;;;49.00;;
17145;SDS011;8688;54.444;18.444;2022-11-21T15:56:08;132.93;;;47.57;;
17145;SDS011;8688;54.444;18.444;2022-11-21T15:58:38;126.20;;;46.17;;
17145;SDS011;8688;54.444;18.444;2022-11-21T16:01:05;127.67;;;48.40;;
17145;SDS011;8688;54.444;18.444;2022-11-21T16:03:37;120.90;;;44.77;;
17145;SDS011;8688;54.444;18.444;2022-11-21T16:06:05;134.00;;;49.57;;